createdAt,value
2023-02-19T00:00:15.702Z,15.02
2023-02-19T00:02:42.514Z,14.75
2023-02-19T00:05:10.320Z,15.57
2023-02-19T00:07:37.206Z,17.70
2023-02-19T00:10:03.892Z,15.50
2023-02-19T00:12:30.542Z,12.00
2023-02-19T00:14:58.388Z,9.90
2023-02-19T00:17:25.005Z,17.40
2023-02-19T00:19:51.666Z,18.73
2023-02-19T00:22:18.303Z,17.42
2023-02-19T00:24:44.907Z,18.80
2023-02-19T00:27:11.584Z,19.55
2023-02-19T00:29:38.173Z,13.10
2023-02-19T00:32:04.882Z,19.95
2023-02-19T00:34:31.533Z,20.50
2023-02-19T00:36:58.246Z,15.85
2023-02-19T00:39:24.878Z,20.08
2023-02-19T00:41:52.706Z,19.83
2023-02-19T00:44:19.775Z,19.35
2023-02-19T00:46:48.373Z,20.60
2023-02-19T00:49:21.086Z,18.80
2023-02-19T00:51:48.382Z,19.38
2023-02-19T00:54:15.051Z,21.65
2023-02-19T00:56:41.906Z,19.33
2023-02-19T00:59:09.045Z,18.23
2023-02-19T01:01:36.113Z,20.33
2023-02-19T01:04:04.834Z,21.02
2023-02-19T01:06:32.971Z,18.35
2023-02-19T01:08:59.622Z,20.13
2023-02-19T01:11:27.318Z,19.25
2023-02-19T01:13:58.314Z,21.90
2023-02-19T01:16:25.144Z,19.52
2023-02-19T01:18:52.198Z,20.65
2023-02-19T01:21:21.775Z,17.42
2023-02-19T01:23:49.444Z,16.17
2023-02-19T01:26:22.143Z,18.40
2023-02-19T01:28:48.936Z,18.63
2023-02-19T01:31:21.841Z,15.75
2023-02-19T01:33:51.325Z,18.50
2023-02-19T01:36:18.774Z,16.50
2023-02-19T01:38:45.806Z,19.95
2023-02-19T01:41:16.176Z,18.10
2023-02-19T01:44:01.193Z,19.45
2023-02-19T01:46:32.828Z,11.75
2023-02-19T01:49:04.786Z,19.52
2023-02-19T01:51:31.929Z,18.45
2023-02-19T01:54:00.436Z,17.17
2023-02-19T01:56:27.885Z,19.80
2023-02-19T01:58:54.569Z,15.63
2023-02-19T02:01:21.165Z,19.92
2023-02-19T02:03:49.648Z,19.35
2023-02-19T02:06:39.543Z,17.02
2023-02-19T02:09:24.775Z,15.45
2023-02-19T02:11:52.612Z,16.48
2023-02-19T02:14:24.318Z,16.80
2023-02-19T02:17:16.772Z,14.38
2023-02-19T02:20:02.101Z,17.13
2023-02-19T02:23:08.355Z,15.50
2023-02-19T02:25:52.717Z,14.00
2023-02-19T02:28:33.505Z,8.63
2023-02-19T02:31:04.779Z,7.80
2023-02-19T02:33:45.835Z,7.80
2023-02-19T02:36:29.543Z,9.65
2023-02-19T02:38:58.357Z,11.43
2023-02-19T02:41:26.240Z,11.30
2023-02-19T02:43:52.831Z,9.68
2023-02-19T02:46:24.798Z,5.05
2023-02-19T02:49:00.452Z,11.30
2023-02-19T02:51:39.085Z,10.88
2023-02-19T02:54:43.110Z,9.48
2023-02-19T02:57:14.778Z,8.77
2023-02-19T02:59:54.962Z,7.80
2023-02-19T03:02:25.613Z,8.30
2023-02-19T03:05:28.665Z,8.15
2023-02-19T03:08:11.349Z,6.88
2023-02-19T03:10:43.410Z,9.60
2023-02-19T03:13:46.719Z,9.52
2023-02-19T03:16:42.992Z,8.90
2023-02-19T03:19:21.320Z,7.22
2023-02-19T03:21:58.208Z,6.85
2023-02-19T03:24:48.518Z,5.47
2023-02-19T03:27:16.503Z,11.85
2023-02-19T03:29:47.944Z,10.52
2023-02-19T03:32:18.699Z,9.30
2023-02-19T03:34:50.597Z,7.78
2023-02-19T03:37:27.027Z,12.93
2023-02-19T03:39:54.090Z,11.57
2023-02-19T03:42:55.034Z,12.85
2023-02-19T03:45:34.008Z,9.25
2023-02-19T03:48:16.178Z,5.53
2023-02-19T03:51:10.605Z,5.25
2023-02-19T03:53:56.071Z,6.65
2023-02-19T03:56:50.347Z,8.93
2023-02-19T03:59:17.091Z,11.45
2023-02-19T04:01:51.261Z,11.32
2023-02-19T04:04:34.053Z,10.73
2023-02-19T04:07:00.811Z,12.65
2023-02-19T04:09:37.205Z,9.25
2023-02-19T04:12:08.571Z,11.32
2023-02-19T04:14:39.571Z,7.60
2023-02-19T04:17:11.989Z,9.07
2023-02-19T04:19:40.295Z,11.93
2023-02-19T04:22:08.312Z,8.40
2023-02-19T04:24:39.104Z,10.68
2023-02-19T04:27:06.287Z,11.00
2023-02-19T04:29:33.082Z,11.32
2023-02-19T04:31:59.789Z,12.05
2023-02-19T04:34:26.459Z,6.13
2023-02-19T04:36:53.184Z,10.15
2023-02-19T04:39:19.874Z,11.75
2023-02-19T04:41:46.460Z,9.45
2023-02-19T04:44:13.092Z,11.55
2023-02-19T04:46:43.043Z,12.68
2023-02-19T04:49:09.868Z,9.77
2023-02-19T04:51:36.482Z,9.82
2023-02-19T04:54:03.161Z,10.77
2023-02-19T04:56:29.856Z,11.82
2023-02-19T04:58:56.669Z,12.50
2023-02-19T05:01:23.483Z,10.05
2023-02-19T05:03:50.292Z,12.23
2023-02-19T05:06:17.765Z,11.10
2023-02-19T05:08:44.413Z,11.95
2023-02-19T05:11:12.559Z,9.75
2023-02-19T05:13:39.982Z,11.93
2023-02-19T05:16:09.729Z,11.48
2023-02-19T05:18:36.456Z,8.60
2023-02-19T05:21:03.173Z,9.95
2023-02-19T05:23:29.890Z,10.70
2023-02-19T05:25:56.539Z,6.63
2023-02-19T05:28:28.662Z,11.07
2023-02-19T05:30:56.636Z,11.05
2023-02-19T05:33:25.771Z,11.13
2023-02-19T05:35:54.481Z,9.43
2023-02-19T05:38:22.310Z,12.07
2023-02-19T05:40:49.256Z,11.35
2023-02-19T05:43:15.863Z,10.68
2023-02-19T05:45:42.596Z,10.45
2023-02-19T05:48:10.666Z,4.35
2023-02-19T05:50:39.728Z,7.70
2023-02-19T05:53:12.532Z,11.45
2023-02-19T05:55:39.177Z,12.27
2023-02-19T05:58:05.827Z,12.15
2023-02-19T06:00:33.546Z,12.05
2023-02-19T06:03:00.790Z,9.55
2023-02-19T06:05:27.486Z,10.57
2023-02-19T06:07:54.104Z,10.43
2023-02-19T06:10:20.773Z,11.32
2023-02-19T06:12:47.437Z,11.30
2023-02-19T06:15:14.120Z,11.88
2023-02-19T06:17:40.814Z,10.82
2023-02-19T06:20:07.759Z,10.52
2023-02-19T06:22:34.365Z,9.82
2023-02-19T06:25:00.991Z,9.98
2023-02-19T06:27:28.116Z,7.03
2023-02-19T06:29:54.944Z,10.77
2023-02-19T06:32:21.728Z,11.20
2023-02-19T06:34:48.558Z,10.88
2023-02-19T06:37:15.265Z,11.38
2023-02-19T06:39:42.026Z,10.85
2023-02-19T06:42:08.680Z,10.45
2023-02-19T06:44:35.305Z,10.00
2023-02-19T06:47:01.928Z,10.30
2023-02-19T06:49:28.552Z,10.35
2023-02-19T06:51:55.196Z,9.40
2023-02-19T06:54:21.840Z,8.93
2023-02-19T06:56:48.538Z,9.35
2023-02-19T06:59:18.287Z,9.52
2023-02-19T07:01:47.932Z,6.60
2023-02-19T07:04:14.848Z,9.52
2023-02-19T07:06:41.565Z,8.52
2023-02-19T07:09:10.588Z,6.85
2023-02-19T07:11:39.029Z,8.25
2023-02-19T07:14:08.400Z,9.10
2023-02-19T07:16:35.934Z,7.35
2023-02-19T07:19:03.535Z,9.93
2023-02-19T07:21:30.404Z,8.32
2023-02-19T07:23:57.522Z,9.93
2023-02-19T07:26:24.449Z,7.78
2023-02-19T07:28:52.032Z,8.95
2023-02-19T07:31:20.786Z,8.88
2023-02-19T07:33:47.852Z,7.93
2023-02-19T07:36:15.458Z,8.68
2023-02-19T07:38:42.099Z,8.73
2023-02-19T07:41:08.770Z,9.10
2023-02-19T07:43:37.471Z,8.98
2023-02-19T07:46:06.084Z,10.30
2023-02-19T07:48:34.234Z,10.57
2023-02-19T07:51:01.893Z,9.60
2023-02-19T07:53:29.042Z,10.85
2023-02-19T07:56:02.878Z,10.52
2023-02-19T07:58:30.215Z,9.85
2023-02-19T08:00:56.992Z,7.85
2023-02-19T08:03:23.757Z,9.05
2023-02-19T08:05:51.423Z,9.13
2023-02-19T08:08:18.243Z,10.50
2023-02-19T08:11:03.404Z,9.70
2023-02-19T08:13:31.127Z,9.55
2023-02-19T08:16:17.059Z,10.50
2023-02-19T08:18:47.859Z,9.20
2023-02-19T08:21:15.004Z,11.18
2023-02-19T08:23:41.739Z,10.45
2023-02-19T08:26:09.786Z,11.25
2023-02-19T08:28:37.016Z,9.23
2023-02-19T08:31:05.929Z,9.60
2023-02-19T08:33:32.571Z,8.45
2023-02-19T08:36:04.678Z,7.68
2023-02-19T08:38:32.287Z,8.10
2023-02-19T08:40:59.034Z,8.57
2023-02-19T08:43:25.727Z,8.73
2023-02-19T08:45:54.477Z,8.00
2023-02-19T08:48:21.359Z,8.50
2023-02-19T08:50:56.974Z,8.05
2023-02-19T08:53:24.059Z,8.52
2023-02-19T08:55:50.801Z,7.60
2023-02-19T08:58:17.510Z,8.60
2023-02-19T09:00:44.445Z,8.70
2023-02-19T09:03:11.169Z,7.30
2023-02-19T09:05:38.488Z,7.28
2023-02-19T09:08:05.388Z,7.03
2023-02-19T09:10:32.045Z,7.18
2023-02-19T09:12:58.679Z,6.85
2023-02-19T09:15:25.766Z,6.78
2023-02-19T09:17:53.036Z,4.90
2023-02-19T09:20:20.040Z,6.43
2023-02-19T09:22:46.679Z,6.22
2023-02-19T09:25:13.272Z,5.07
2023-02-19T09:27:39.929Z,6.82
2023-02-19T09:30:07.042Z,5.85
2023-02-19T09:32:33.746Z,5.43
2023-02-19T09:35:00.375Z,4.57
2023-02-19T09:37:27.933Z,5.20
2023-02-19T09:39:55.176Z,5.70
2023-02-19T09:42:29.230Z,6.13
2023-02-19T09:44:58.098Z,3.75
2023-02-19T09:47:29.683Z,4.88
2023-02-19T09:50:00.608Z,5.15
2023-02-19T09:52:33.207Z,7.65
2023-02-19T09:55:16.727Z,7.75
2023-02-19T09:57:43.847Z,7.05
2023-02-19T10:00:21.215Z,6.53
2023-02-19T10:02:51.570Z,5.40
2023-02-19T10:05:18.301Z,6.10
2023-02-19T10:07:47.302Z,7.03
2023-02-19T10:10:13.910Z,4.78
2023-02-19T10:12:46.360Z,6.22
2023-02-19T10:15:36.370Z,5.78
2023-02-19T10:18:05.502Z,6.50
2023-02-19T10:20:32.362Z,10.82
2023-02-19T10:23:10.888Z,5.93
2023-02-19T10:25:43.297Z,2.20
2023-02-19T10:28:12.473Z,1.83
2023-02-19T10:30:39.191Z,1.83
2023-02-19T10:33:14.399Z,1.90
2023-02-19T10:36:02.122Z,1.88
2023-02-19T10:38:39.824Z,1.30
2023-02-19T10:41:08.963Z,1.60
2023-02-19T10:43:37.454Z,1.63
2023-02-19T10:46:14.491Z,2.15
2023-02-19T10:48:47.060Z,1.50
2023-02-19T10:51:21.706Z,1.42
2023-02-19T10:53:51.178Z,1.85
2023-02-19T10:56:25.899Z,1.98
2023-02-19T10:58:52.739Z,2.17
2023-02-19T11:01:20.662Z,1.85
2023-02-19T11:03:49.377Z,1.80
2023-02-19T11:06:20.188Z,1.67
2023-02-19T11:08:53.772Z,1.65
2023-02-19T11:11:36.549Z,1.88
2023-02-19T11:14:15.801Z,1.60
2023-02-19T11:16:54.985Z,1.48
2023-02-19T11:19:36.975Z,1.40
2023-02-19T11:22:34.321Z,1.73
2023-02-19T11:25:21.690Z,1.90
2023-02-19T11:28:07.038Z,2.28
2023-02-19T11:30:36.485Z,2.15
2023-02-19T11:33:27.427Z,1.70
2023-02-19T11:36:00.543Z,2.00
2023-02-19T11:38:27.317Z,1.88
2023-02-19T11:41:12.033Z,1.60
2023-02-19T11:44:03.103Z,1.88
2023-02-19T11:47:11.256Z,1.92
2023-02-19T11:49:37.833Z,1.48
2023-02-19T11:52:07.391Z,1.98
2023-02-19T11:54:50.967Z,1.52
2023-02-19T11:57:29.787Z,1.98
2023-02-19T12:00:16.580Z,1.90
2023-02-19T12:03:05.051Z,2.35
2023-02-19T12:05:38.088Z,2.33
2023-02-19T12:08:21.276Z,2.17
2023-02-19T12:11:10.956Z,2.00
2023-02-19T12:13:55.878Z,2.40
2023-02-19T12:16:34.071Z,2.50
2023-02-19T12:19:25.901Z,2.13
2023-02-19T12:22:02.415Z,2.35
2023-02-19T12:24:38.027Z,3.10
2023-02-19T12:27:28.518Z,2.80
2023-02-19T12:30:20.370Z,1.95
2023-02-19T12:33:09.672Z,1.80
2023-02-19T12:36:08.858Z,1.95
2023-02-19T12:38:45.212Z,2.30
2023-02-19T12:41:30.152Z,2.15
2023-02-19T12:44:00.887Z,2.00
2023-02-19T12:46:38.209Z,1.80
2023-02-19T12:49:10.939Z,2.30
2023-02-19T12:51:47.604Z,1.77
2023-02-19T12:54:27.530Z,2.08
2023-02-19T12:57:03.263Z,1.90
2023-02-19T12:59:33.055Z,1.70
2023-02-19T13:02:24.151Z,1.48
2023-02-19T13:05:02.741Z,1.92
2023-02-19T13:07:46.928Z,2.30
2023-02-19T13:10:16.560Z,1.95
2023-02-19T13:12:44.436Z,2.00
2023-02-19T13:15:37.209Z,2.22
2023-02-19T13:18:05.837Z,1.60
2023-02-19T13:20:38.080Z,2.15
2023-02-19T13:23:58.968Z,2.33
2023-02-19T13:26:48.789Z,2.42
2023-02-19T13:29:36.713Z,2.20
2023-02-19T13:32:25.133Z,1.98
2023-02-19T13:35:35.946Z,2.70
2023-02-19T13:38:03.404Z,2.30
2023-02-19T13:40:34.966Z,2.40
2023-02-19T13:43:06.982Z,2.58
2023-02-19T13:45:38.524Z,2.47
2023-02-19T13:48:24.987Z,2.50
2023-02-19T13:51:18.758Z,2.33
2023-02-19T13:53:45.622Z,2.40
2023-02-19T13:56:34.017Z,2.42
2023-02-19T13:59:23.066Z,2.50
2023-02-19T14:01:52.126Z,2.50
2023-02-19T14:04:41.189Z,3.55
2023-02-19T14:07:07.802Z,3.53
2023-02-19T14:09:34.417Z,3.58
2023-02-19T14:12:05.507Z,3.75
2023-02-19T14:14:42.498Z,3.17
2023-02-19T14:17:09.222Z,2.88
2023-02-19T14:19:41.829Z,3.15
2023-02-19T14:22:48.859Z,3.30
2023-02-19T14:25:29.361Z,3.10
2023-02-19T14:28:17.293Z,3.30
2023-02-19T14:31:02.333Z,3.70
2023-02-19T14:33:40.998Z,3.70
2023-02-19T14:36:10.649Z,3.63
2023-02-19T14:38:46.226Z,4.13
2023-02-19T14:41:14.816Z,4.10
2023-02-19T14:43:41.860Z,3.47
2023-02-19T14:46:34.246Z,4.20
2023-02-19T14:49:07.457Z,3.90
2023-02-19T14:51:44.242Z,4.00
2023-02-19T14:54:16.067Z,4.43
2023-02-19T14:56:45.396Z,4.43
2023-02-19T14:59:12.043Z,4.47
2023-02-19T15:01:39.015Z,3.70
2023-02-19T15:04:06.602Z,4.40
2023-02-19T15:06:35.215Z,5.97
2023-02-19T15:09:07.111Z,4.72
2023-02-19T15:11:35.366Z,4.10
2023-02-19T15:14:04.276Z,2.50
2023-02-19T15:16:32.346Z,2.90
2023-02-19T15:18:59.993Z,2.20
2023-02-19T15:21:28.938Z,2.53
2023-02-19T15:24:00.891Z,2.53
2023-02-19T15:26:43.048Z,2.88
2023-02-19T15:29:15.343Z,3.85
2023-02-19T15:31:54.075Z,4.82
2023-02-19T15:34:31.749Z,6.20
2023-02-19T15:37:00.782Z,6.20
2023-02-19T15:39:36.845Z,6.38
2023-02-19T15:42:04.900Z,5.72
2023-02-19T15:44:48.485Z,6.60
2023-02-19T15:47:38.623Z,6.38
2023-02-19T15:50:17.247Z,7.47
2023-02-19T15:52:59.629Z,7.47
2023-02-19T15:55:28.207Z,7.13
2023-02-19T15:58:04.256Z,6.80
2023-02-19T16:00:37.803Z,6.88
2023-02-19T16:03:05.493Z,6.90
2023-02-19T16:05:39.197Z,7.15
2023-02-19T16:08:07.088Z,6.93
2023-02-19T16:10:33.729Z,5.93
2023-02-19T16:13:01.997Z,6.47
2023-02-19T16:15:30.715Z,5.75
2023-02-19T16:17:58.057Z,5.53
2023-02-19T16:20:30.263Z,5.90
2023-02-19T16:23:00.289Z,6.28
2023-02-19T16:25:35.554Z,6.10
2023-02-19T16:28:11.288Z,5.90
2023-02-19T16:30:38.182Z,5.43
2023-02-19T16:33:36.974Z,6.30
2023-02-19T16:36:41.806Z,6.55
2023-02-19T16:39:08.575Z,6.30
2023-02-19T16:41:41.363Z,5.38
2023-02-19T16:44:31.191Z,5.93
2023-02-19T16:47:00.561Z,5.63
2023-02-19T16:49:27.244Z,7.70
2023-02-19T16:51:54.668Z,7.47
2023-02-19T16:54:22.190Z,7.90
2023-02-19T16:56:48.885Z,6.22
2023-02-19T16:59:15.557Z,6.53
2023-02-19T17:01:42.432Z,6.05
2023-02-19T17:04:11.534Z,7.38
2023-02-19T17:06:39.378Z,7.68
2023-02-19T17:09:07.003Z,6.50
2023-02-19T17:11:33.733Z,6.45
2023-02-19T17:14:00.412Z,7.63
2023-02-19T17:16:40.623Z,7.32
2023-02-19T17:19:16.938Z,7.03
2023-02-19T17:21:45.121Z,6.65
2023-02-19T17:24:11.829Z,7.40
2023-02-19T17:26:38.867Z,7.32
2023-02-19T17:29:07.091Z,7.07
2023-02-19T17:31:34.242Z,7.40
2023-02-19T17:34:00.965Z,6.93
2023-02-19T17:36:32.481Z,7.00
2023-02-19T17:39:00.104Z,7.13
2023-02-19T17:41:26.990Z,8.30
2023-02-19T17:43:53.737Z,8.05
2023-02-19T17:46:23.264Z,9.07
2023-02-19T17:48:50.554Z,7.47
2023-02-19T17:51:18.169Z,7.47
2023-02-19T17:53:46.608Z,7.80
2023-02-19T17:56:21.686Z,7.72
2023-02-19T17:58:48.485Z,7.63
2023-02-19T18:01:15.803Z,7.63
2023-02-19T18:03:42.992Z,6.72
2023-02-19T18:06:09.768Z,6.75
2023-02-19T18:08:36.408Z,6.07
2023-02-19T18:11:03.564Z,6.60
2023-02-19T18:13:30.294Z,6.63
2023-02-19T18:15:57.035Z,7.32
2023-02-19T18:18:23.745Z,6.65
2023-02-19T18:20:50.437Z,7.70
2023-02-19T18:23:17.407Z,8.23
2023-02-19T18:25:44.262Z,7.70
2023-02-19T18:28:11.051Z,8.05
2023-02-19T18:30:37.850Z,9.50
2023-02-19T18:33:05.360Z,5.35
2023-02-19T18:35:34.088Z,4.78
2023-02-19T18:38:01.492Z,4.30
2023-02-19T18:40:28.854Z,3.25
2023-02-19T18:42:55.604Z,3.70
2023-02-19T18:45:22.330Z,3.67
2023-02-19T18:47:49.668Z,3.53
2023-02-19T18:50:17.803Z,2.50
2023-02-19T18:52:45.311Z,3.28
2023-02-19T18:55:11.999Z,3.60
2023-02-19T18:57:38.702Z,5.18
2023-02-19T19:00:06.774Z,5.35
2023-02-19T19:02:47.164Z,4.95
2023-02-19T19:05:18.204Z,5.43
2023-02-19T19:07:44.806Z,4.45
2023-02-19T19:10:11.505Z,4.07
2023-02-19T19:12:38.146Z,4.75
2023-02-19T19:15:05.523Z,4.13
2023-02-19T19:17:32.214Z,3.80
2023-02-19T19:19:58.882Z,4.40
2023-02-19T19:22:26.652Z,4.15
2023-02-19T19:24:53.383Z,3.60
2023-02-19T19:27:20.393Z,3.83
2023-02-19T19:29:47.947Z,4.82
2023-02-19T19:32:14.719Z,4.55
2023-02-19T19:34:42.847Z,4.00
2023-02-19T19:37:09.801Z,4.70
2023-02-19T19:39:36.831Z,4.00
2023-02-19T19:42:04.023Z,4.30
2023-02-19T19:44:30.644Z,3.85
2023-02-19T19:46:57.437Z,4.30
2023-02-19T19:49:24.394Z,3.85
2023-02-19T19:51:51.082Z,4.40
2023-02-19T19:54:17.788Z,4.10
2023-02-19T19:56:46.474Z,3.83
2023-02-19T19:59:14.573Z,4.70
2023-02-19T20:01:57.055Z,5.05
2023-02-19T20:04:25.048Z,4.97
2023-02-19T20:06:52.039Z,5.20
2023-02-19T20:09:19.380Z,6.00
2023-02-19T20:11:49.334Z,6.03
2023-02-19T20:14:17.468Z,5.75
2023-02-19T20:16:44.869Z,6.03
2023-02-19T20:19:12.193Z,6.40
2023-02-19T20:21:38.942Z,6.00
2023-02-19T20:24:06.087Z,5.80
2023-02-19T20:26:32.744Z,6.43
2023-02-19T20:28:59.462Z,6.72
2023-02-19T20:31:26.598Z,6.18
2023-02-19T20:33:53.403Z,6.43
2023-02-19T20:36:20.747Z,6.07
2023-02-19T20:38:49.873Z,6.10
2023-02-19T20:41:16.651Z,5.68
2023-02-19T20:43:43.275Z,5.53
2023-02-19T20:46:10.774Z,5.93
2023-02-19T20:48:37.825Z,5.68
2023-02-19T20:51:04.644Z,6.40
2023-02-19T20:53:32.079Z,6.35
2023-02-19T20:55:59.087Z,7.63
2023-02-19T20:58:26.221Z,7.55
2023-02-19T21:00:55.871Z,6.38
2023-02-19T21:03:22.575Z,6.82
2023-02-19T21:05:49.238Z,7.68
2023-02-19T21:08:17.345Z,7.68
2023-02-19T21:10:45.909Z,7.20
2023-02-19T21:13:13.013Z,6.93
2023-02-19T21:15:39.783Z,7.22
2023-02-19T21:18:06.465Z,7.40
2023-02-19T21:20:33.265Z,7.53
2023-02-19T21:23:00.800Z,8.00
2023-02-19T21:25:27.761Z,7.22
2023-02-19T21:27:54.386Z,7.38
2023-02-19T21:30:21.153Z,7.63
2023-02-19T21:32:47.846Z,8.45
2023-02-19T21:35:14.688Z,6.53
2023-02-19T21:37:43.124Z,7.70
2023-02-19T21:40:11.101Z,8.20
2023-02-19T21:42:37.733Z,7.55
2023-02-19T21:45:04.747Z,8.55
2023-02-19T21:47:33.428Z,7.75
2023-02-19T21:50:00.154Z,9.57
2023-02-19T21:52:27.053Z,9.10
2023-02-19T21:54:53.721Z,8.95
2023-02-19T21:57:21.153Z,9.68
2023-02-19T21:59:47.855Z,9.02
2023-02-19T22:02:14.801Z,9.10
2023-02-19T22:04:41.556Z,9.27
2023-02-19T22:07:08.292Z,8.90
2023-02-19T22:09:34.921Z,8.80
2023-02-19T22:12:01.701Z,7.97
2023-02-19T22:14:28.482Z,8.43
2023-02-19T22:16:55.166Z,8.25
2023-02-19T22:19:21.777Z,9.50
2023-02-19T22:21:48.544Z,8.15
2023-02-19T22:24:20.159Z,8.77
2023-02-19T22:26:47.584Z,8.00
2023-02-19T22:29:15.214Z,9.02
2023-02-19T22:31:42.224Z,8.60
2023-02-19T22:34:09.254Z,8.52
2023-02-19T22:36:39.134Z,8.80
2023-02-19T22:39:07.840Z,9.18
2023-02-19T22:41:34.557Z,9.23
2023-02-19T22:44:01.443Z,10.20
2023-02-19T22:46:30.079Z,10.02
2023-02-19T22:48:56.854Z,11.43
2023-02-19T22:51:24.454Z,11.02
2023-02-19T22:53:55.609Z,10.63
2023-02-19T22:56:24.928Z,8.73
2023-02-19T22:58:52.363Z,12.35
2023-02-19T23:01:19.704Z,12.20
2023-02-19T23:03:48.381Z,11.35
2023-02-19T23:06:16.474Z,11.73
2023-02-19T23:08:43.660Z,11.60
2023-02-19T23:11:19.646Z,12.23
2023-02-19T23:13:46.289Z,12.45
2023-02-19T23:16:13.213Z,12.52
2023-02-19T23:18:40.149Z,12.73
2023-02-19T23:21:06.986Z,12.95
2023-02-19T23:23:33.623Z,13.15
2023-02-19T23:26:00.241Z,11.60
2023-02-19T23:28:26.989Z,11.60
2023-02-19T23:30:53.754Z,10.82
2023-02-19T23:33:20.458Z,11.20
2023-02-19T23:35:47.279Z,11.40
2023-02-19T23:38:13.918Z,10.25
2023-02-19T23:40:40.651Z,9.48
2023-02-19T23:43:07.295Z,9.25
2023-02-19T23:45:33.929Z,9.00
2023-02-19T23:48:00.580Z,8.80
2023-02-19T23:50:27.297Z,8.65
2023-02-19T23:52:56.406Z,7.10
2023-02-19T23:55:23.309Z,8.68
2023-02-19T23:57:49.928Z,8.23
